sensor_id;sensor_type;location;lat;lon;timestamp;temperature;humidity
6293;DHT22;3179;54.350;10.102;2023-04-03T00:00:04;5.70;96.30
6293;DHT22;3179;54.350;10.102;2023-04-03T00:02:32;5.60;96.20
6293;DHT22;3179;54.350;10.102;2023-04-03T00:04:59;5.60;96.30
6293;DHT22;3179;54.350;10.102;2023-04-03T00:07:27;5.60;96.30
6293;DHT22;3179;54.350;10.102;2023-04-03T00:09:54;5.50;96.30
6293;DHT22;3179;54.350;10.102;2023-04-03T00:12:20;5.50;96.30
6293;DHT22;3179;54.350;10.102;2023-04-03T00:14:47;5.50;96.40
6293;DHT22;3179;54.350;10.102;2023-04-03T00:17:14;5.50;96.40
6293;DHT22;3179;54.350;10.102;2023-04-03T00:19:41;5.50;96.40
6293;DHT22;3179;54.350;10.102;2023-04-03T00:22:07;5.50;96.40
6293;DHT22;3179;54.350;10.102;2023-04-03T00:24:36;5.40;96.40
6293;DHT22;3179;54.350;10.102;2023-04-03T00:27:03;5.40;96.50
6293;DHT22;3179;54.350;10.102;2023-04-03T00:29:29;5.40;96.50
6293;DHT22;3179;54.350;10.102;2023-04-03T00:31:56;5.40;96.50
6293;DHT22;3179;54.350;10.102;2023-04-03T00:34:23;5.40;96.50
6293;DHT22;3179;54.350;10.102;2023-04-03T00:36:50;5.40;96.60
6293;DHT22;3179;54.350;10.102;2023-04-03T00:39:17;5.30;96.60
6293;DHT22;3179;54.350;10.102;2023-04-03T00:41:45;5.30;96.60
6293;DHT22;3179;54.350;10.102;2023-04-03T00:47:27;5.30;96.70
6293;DHT22;3179;54.350;10.102;2023-04-03T00:49:55;5.20;96.60
6293;DHT22;3179;54.350;10.102;2023-04-03T00:52:25;5.20;96.60
6293;DHT22;3179;54.350;10.102;2023-04-03T00:54:55;5.20;96.70
6293;DHT22;3179;54.350;10.102;2023-04-03T00:57:25;5.20;96.70
6293;DHT22;3179;54.350;10.102;2023-04-03T00:59:55;5.10;96.70
6293;DHT22;3179;54.350;10.102;2023-04-03T01:02:24;5.10;96.70
6293;DHT22;3179;54.350;10.102;2023-04-03T01:04:51;5.10;96.70
6293;DHT22;3179;54.350;10.102;2023-04-03T01:07:20;5.10;96.70
6293;DHT22;3179;54.350;10.102;2023-04-03T01:09:52;5.10;96.70
6293;DHT22;3179;54.350;10.102;2023-04-03T01:12:21;5.00;97.00
6293;DHT22;3179;54.350;10.102;2023-04-03T01:14:51;5.00;96.80
6293;DHT22;3179;54.350;10.102;2023-04-03T01:17:27;5.00;96.80
6293;DHT22;3179;54.350;10.102;2023-04-03T01:20:10;5.00;96.80
6293;DHT22;3179;54.350;10.102;2023-04-03T01:22:45;4.90;96.80
6293;DHT22;3179;54.350;10.102;2023-04-03T01:25:16;4.90;96.70
6293;DHT22;3179;54.350;10.102;2023-04-03T01:27:43;4.90;96.70
6293;DHT22;3179;54.350;10.102;2023-04-03T01:30:13;4.90;96.70
6293;DHT22;3179;54.350;10.102;2023-04-03T01:32:44;4.90;96.80
6293;DHT22;3179;54.350;10.102;2023-04-03T01:35:11;4.80;96.80
6293;DHT22;3179;54.350;10.102;2023-04-03T01:37:38;4.80;96.80
6293;DHT22;3179;54.350;10.102;2023-04-03T01:40:06;4.80;96.80
6293;DHT22;3179;54.350;10.102;2023-04-03T01:42:33;4.80;96.80
6293;DHT22;3179;54.350;10.102;2023-04-03T01:45:00;4.70;96.80
6293;DHT22;3179;54.350;10.102;2023-04-03T01:47:27;4.70;96.80
6293;DHT22;3179;54.350;10.102;2023-04-03T01:49:55;4.70;96.90
6293;DHT22;3179;54.350;10.102;2023-04-03T01:52:22;4.70;96.90
6293;DHT22;3179;54.350;10.102;2023-04-03T01:54:50;4.60;96.80
6293;DHT22;3179;54.350;10.102;2023-04-03T01:57:17;4.60;96.80
6293;DHT22;3179;54.350;10.102;2023-04-03T01:59:44;4.60;96.80
6293;DHT22;3179;54.350;10.102;2023-04-03T02:02:11;4.60;96.90
6293;DHT22;3179;54.350;10.102;2023-04-03T02:04:40;4.60;96.90
6293;DHT22;3179;54.350;10.102;2023-04-03T02:07:08;4.50;96.90
6293;DHT22;3179;54.350;10.102;2023-04-03T02:09:34;4.50;96.90
6293;DHT22;3179;54.350;10.102;2023-04-03T02:12:01;4.50;96.90
6293;DHT22;3179;54.350;10.102;2023-04-03T02:14:28;4.50;96.90
6293;DHT22;3179;54.350;10.102;2023-04-03T02:16:55;4.50;96.90
6293;DHT22;3179;54.350;10.102;2023-04-03T02:19:22;4.40;96.90
6293;DHT22;3179;54.350;10.102;2023-04-03T02:21:48;4.40;97.00
6293;DHT22;3179;54.350;10.102;2023-04-03T02:24:16;4.40;97.00
6293;DHT22;3179;54.350;10.102;2023-04-03T02:26:43;4.40;97.10
6293;DHT22;3179;54.350;10.102;2023-04-03T02:29:10;4.30;97.10
6293;DHT22;3179;54.350;10.102;2023-04-03T02:31:37;4.30;97.10
6293;DHT22;3179;54.350;10.102;2023-04-03T02:34:03;4.30;97.10
6293;DHT22;3179;54.350;10.102;2023-04-03T02:36:31;4.30;97.00
6293;DHT22;3179;54.350;10.102;2023-04-03T02:38:57;4.30;97.00
6293;DHT22;3179;54.350;10.102;2023-04-03T02:41:25;4.30;97.00
6293;DHT22;3179;54.350;10.102;2023-04-03T02:43:59;4.30;97.10
6293;DHT22;3179;54.350;10.102;2023-04-03T02:46:25;4.20;97.10
6293;DHT22;3179;54.350;10.102;2023-04-03T02:48:52;4.20;97.00
6293;DHT22;3179;54.350;10.102;2023-04-03T02:51:19;4.20;97.00
6293;DHT22;3179;54.350;10.102;2023-04-03T02:53:46;4.20;97.00
6293;DHT22;3179;54.350;10.102;2023-04-03T02:56:12;4.20;97.10
6293;DHT22;3179;54.350;10.102;2023-04-03T02:58:40;4.10;97.00
6293;DHT22;3179;54.350;10.102;2023-04-03T03:01:07;4.10;97.10
6293;DHT22;3179;54.350;10.102;2023-04-03T03:03:34;4.10;97.10
6293;DHT22;3179;54.350;10.102;2023-04-03T03:06:02;4.10;97.10
6293;DHT22;3179;54.350;10.102;2023-04-03T03:08:29;4.00;97.10
6293;DHT22;3179;54.350;10.102;2023-04-03T03:10:55;4.00;97.10
6293;DHT22;3179;54.350;10.102;2023-04-03T03:13:22;4.00;97.10
6293;DHT22;3179;54.350;10.102;2023-04-03T03:15:50;4.00;97.20
6293;DHT22;3179;54.350;10.102;2023-04-03T03:18:17;3.90;97.20
6293;DHT22;3179;54.350;10.102;2023-04-03T03:20:44;3.90;97.20
6293;DHT22;3179;54.350;10.102;2023-04-03T03:23:11;3.90;97.20
6293;DHT22;3179;54.350;10.102;2023-04-03T03:25:38;3.90;97.20
6293;DHT22;3179;54.350;10.102;2023-04-03T03:28:05;3.90;97.20
6293;DHT22;3179;54.350;10.102;2023-04-03T03:30:31;3.80;97.20
6293;DHT22;3179;54.350;10.102;2023-04-03T03:33:00;3.80;97.10
6293;DHT22;3179;54.350;10.102;2023-04-03T03:35:26;3.80;97.10
6293;DHT22;3179;54.350;10.102;2023-04-03T03:37:53;3.80;97.10
6293;DHT22;3179;54.350;10.102;2023-04-03T03:40:20;3.80;97.20
6293;DHT22;3179;54.350;10.102;2023-04-03T03:42:47;3.70;97.20
6293;DHT22;3179;54.350;10.102;2023-04-03T03:45:13;3.70;97.30
6293;DHT22;3179;54.350;10.102;2023-04-03T03:47:40;3.70;97.30
6293;DHT22;3179;54.350;10.102;2023-04-03T03:50:09;3.70;97.20
6293;DHT22;3179;54.350;10.102;2023-04-03T03:52:36;3.70;97.30
6293;DHT22;3179;54.350;10.102;2023-04-03T03:55:04;3.70;97.30
6293;DHT22;3179;54.350;10.102;2023-04-03T03:57:31;3.70;97.30
6293;DHT22;3179;54.350;10.102;2023-04-03T03:59:58;3.70;97.30
6293;DHT22;3179;54.350;10.102;2023-04-03T04:02:24;3.70;97.30
6293;DHT22;3179;54.350;10.102;2023-04-03T04:04:51;3.60;97.30
6293;DHT22;3179;54.350;10.102;2023-04-03T04:07:19;3.60;97.30
6293;DHT22;3179;54.350;10.102;2023-04-03T04:09:46;3.60;97.30
6293;DHT22;3179;54.350;10.102;2023-04-03T04:12:13;3.60;97.30
6293;DHT22;3179;54.350;10.102;2023-04-03T04:14:40;3.50;97.20
6293;DHT22;3179;54.350;10.102;2023-04-03T04:17:06;3.60;97.30
6293;DHT22;3179;54.350;10.102;2023-04-03T04:19:33;3.50;97.30
6293;DHT22;3179;54.350;10.102;2023-04-03T04:22:00;3.50;97.30
6293;DHT22;3179;54.350;10.102;2023-04-03T04:24:28;3.50;97.30
6293;DHT22;3179;54.350;10.102;2023-04-03T04:26:55;3.50;97.30
6293;DHT22;3179;54.350;10.102;2023-04-03T04:29:22;3.50;97.30
6293;DHT22;3179;54.350;10.102;2023-04-03T04:31:48;3.40;97.30
6293;DHT22;3179;54.350;10.102;2023-04-03T04:34:15;3.40;97.30
6293;DHT22;3179;54.350;10.102;2023-04-03T04:36:42;3.40;97.40
6293;DHT22;3179;54.350;10.102;2023-04-03T04:39:09;3.40;97.40
6293;DHT22;3179;54.350;10.102;2023-04-03T04:41:37;3.40;97.40
6293;DHT22;3179;54.350;10.102;2023-04-03T04:44:04;3.40;97.40
6293;DHT22;3179;54.350;10.102;2023-04-03T04:46:31;3.30;97.70
6293;DHT22;3179;54.350;10.102;2023-04-03T04:48:58;3.30;97.50
6293;DHT22;3179;54.350;10.102;2023-04-03T04:51:25;3.30;97.50
6293;DHT22;3179;54.350;10.102;2023-04-03T04:53:52;3.30;97.60
6293;DHT22;3179;54.350;10.102;2023-04-03T04:56:18;3.30;97.50
6293;DHT22;3179;54.350;10.102;2023-04-03T04:58:47;3.30;97.50
6293;DHT22;3179;54.350;10.102;2023-04-03T05:01:14;3.30;97.50
6293;DHT22;3179;54.350;10.102;2023-04-03T05:03:41;3.30;97.60
6293;DHT22;3179;54.350;10.102;2023-04-03T05:06:08;3.20;97.50
6293;DHT22;3179;54.350;10.102;2023-04-03T05:08:35;3.20;97.60
6293;DHT22;3179;54.350;10.102;2023-04-03T05:11:02;3.20;97.60
6293;DHT22;3179;54.350;10.102;2023-04-03T05:13:29;3.20;97.60
6293;DHT22;3179;54.350;10.102;2023-04-03T05:15:57;3.20;97.60
6293;DHT22;3179;54.350;10.102;2023-04-03T05:18:24;3.20;97.70
6293;DHT22;3179;54.350;10.102;2023-04-03T05:20:51;3.20;97.70
6293;DHT22;3179;54.350;10.102;2023-04-03T05:23:18;3.20;97.80
6293;DHT22;3179;54.350;10.102;2023-04-03T05:25:45;3.20;97.80
6293;DHT22;3179;54.350;10.102;2023-04-03T05:28:12;3.20;97.80
6293;DHT22;3179;54.350;10.102;2023-04-03T05:30:39;3.20;97.80
6293;DHT22;3179;54.350;10.102;2023-04-03T05:33:07;3.20;97.90
6293;DHT22;3179;54.350;10.102;2023-04-03T05:35:35;3.20;97.90
6293;DHT22;3179;54.350;10.102;2023-04-03T05:38:04;3.20;98.30
6293;DHT22;3179;54.350;10.102;2023-04-03T05:40:31;3.20;98.00
6293;DHT22;3179;54.350;10.102;2023-04-03T05:42:58;3.20;98.10
6293;DHT22;3179;54.350;10.102;2023-04-03T05:45:25;3.20;98.10
6293;DHT22;3179;54.350;10.102;2023-04-03T05:47:51;3.20;98.10
6293;DHT22;3179;54.350;10.102;2023-04-03T05:50:20;3.20;98.00
6293;DHT22;3179;54.350;10.102;2023-04-03T05:52:49;3.20;98.00
6293;DHT22;3179;54.350;10.102;2023-04-03T05:55:16;3.20;98.10
6293;DHT22;3179;54.350;10.102;2023-04-03T05:57:43;3.20;98.20
6293;DHT22;3179;54.350;10.102;2023-04-03T06:00:13;3.20;98.20
6293;DHT22;3179;54.350;10.102;2023-04-03T06:02:41;3.20;98.30
6293;DHT22;3179;54.350;10.102;2023-04-03T06:05:08;3.30;98.40
6293;DHT22;3179;54.350;10.102;2023-04-03T06:07:38;3.30;98.50
6293;DHT22;3179;54.350;10.102;2023-04-03T06:10:06;3.30;98.50
6293;DHT22;3179;54.350;10.102;2023-04-03T06:12:34;3.30;98.50
6293;DHT22;3179;54.350;10.102;2023-04-03T06:15:01;3.30;98.70
6293;DHT22;3179;54.350;10.102;2023-04-03T06:17:27;3.40;98.80
6293;DHT22;3179;54.350;10.102;2023-04-03T06:19:55;3.40;98.90
6293;DHT22;3179;54.350;10.102;2023-04-03T06:22:23;3.40;99.00
6293;DHT22;3179;54.350;10.102;2023-04-03T06:24:53;3.40;99.00
6293;DHT22;3179;54.350;10.102;2023-04-03T06:27:20;3.40;99.10
6293;DHT22;3179;54.350;10.102;2023-04-03T06:29:47;3.50;99.20
6293;DHT22;3179;54.350;10.102;2023-04-03T06:32:14;3.50;99.40
6293;DHT22;3179;54.350;10.102;2023-04-03T06:34:41;3.50;99.40
6293;DHT22;3179;54.350;10.102;2023-04-03T06:37:10;3.60;99.60
6293;DHT22;3179;54.350;10.102;2023-04-03T06:39:37;3.60;99.70
6293;DHT22;3179;54.350;10.102;2023-04-03T06:42:06;3.60;99.70
6293;DHT22;3179;54.350;10.102;2023-04-03T06:44:33;3.70;99.80
6293;DHT22;3179;54.350;10.102;2023-04-03T06:47:00;3.70;99.90
6293;DHT22;3179;54.350;10.102;2023-04-03T06:49:27;3.70;99.90
6293;DHT22;3179;54.350;10.102;2023-04-03T06:51:54;3.80;99.90
6293;DHT22;3179;54.350;10.102;2023-04-03T06:54:22;3.80;99.90
6293;DHT22;3179;54.350;10.102;2023-04-03T06:56:49;3.80;99.90
6293;DHT22;3179;54.350;10.102;2023-04-03T06:59:18;3.90;99.90
6293;DHT22;3179;54.350;10.102;2023-04-03T07:01:45;3.90;99.90
6293;DHT22;3179;54.350;10.102;2023-04-03T07:04:12;3.90;99.90
6293;DHT22;3179;54.350;10.102;2023-04-03T07:06:40;4.00;99.90
6293;DHT22;3179;54.350;10.102;2023-04-03T07:09:07;4.00;99.90
6293;DHT22;3179;54.350;10.102;2023-04-03T07:11:34;4.00;99.90
6293;DHT22;3179;54.350;10.102;2023-04-03T07:14:01;4.10;99.90
6293;DHT22;3179;54.350;10.102;2023-04-03T07:16:29;4.10;99.90
6293;DHT22;3179;54.350;10.102;2023-04-03T07:18:57;4.10;99.90
6293;DHT22;3179;54.350;10.102;2023-04-03T07:21:24;4.20;99.90
6293;DHT22;3179;54.350;10.102;2023-04-03T07:23:51;4.20;99.90
6293;DHT22;3179;54.350;10.102;2023-04-03T07:26:18;4.20;99.90
6293;DHT22;3179;54.350;10.102;2023-04-03T07:28:46;4.20;99.90
6293;DHT22;3179;54.350;10.102;2023-04-03T07:31:14;4.30;99.90
6293;DHT22;3179;54.350;10.102;2023-04-03T07:33:44;4.30;99.90
6293;DHT22;3179;54.350;10.102;2023-04-03T07:36:15;4.40;99.90
6293;DHT22;3179;54.350;10.102;2023-04-03T07:38:42;4.40;99.90
6293;DHT22;3179;54.350;10.102;2023-04-03T07:41:13;4.40;99.90
6293;DHT22;3179;54.350;10.102;2023-04-03T07:43:40;4.50;99.90
6293;DHT22;3179;54.350;10.102;2023-04-03T07:46:07;4.60;99.90
6293;DHT22;3179;54.350;10.102;2023-04-03T07:48:34;4.60;99.90
6293;DHT22;3179;54.350;10.102;2023-04-03T07:51:03;4.70;99.90
6293;DHT22;3179;54.350;10.102;2023-04-03T07:53:31;4.70;99.90
6293;DHT22;3179;54.350;10.102;2023-04-03T07:55:59;4.80;99.90
6293;DHT22;3179;54.350;10.102;2023-04-03T07:58:26;4.90;99.90
6293;DHT22;3179;54.350;10.102;2023-04-03T08:00:53;4.90;99.90
6293;DHT22;3179;54.350;10.102;2023-04-03T08:03:19;4.90;99.90
6293;DHT22;3179;54.350;10.102;2023-04-03T08:05:48;5.00;99.90
6293;DHT22;3179;54.350;10.102;2023-04-03T08:08:18;5.10;99.90
6293;DHT22;3179;54.350;10.102;2023-04-03T08:10:48;5.20;99.90
6293;DHT22;3179;54.350;10.102;2023-04-03T08:13:16;5.30;99.90
6293;DHT22;3179;54.350;10.102;2023-04-03T08:15:42;5.40;99.90
6293;DHT22;3179;54.350;10.102;2023-04-03T08:18:09;5.40;99.90
6293;DHT22;3179;54.350;10.102;2023-04-03T08:20:38;5.40;99.90
6293;DHT22;3179;54.350;10.102;2023-04-03T08:23:06;5.50;99.90
6293;DHT22;3179;54.350;10.102;2023-04-03T08:25:37;5.60;99.90
6293;DHT22;3179;54.350;10.102;2023-04-03T08:28:04;5.60;99.90
6293;DHT22;3179;54.350;10.102;2023-04-03T08:30:31;5.70;99.90
6293;DHT22;3179;54.350;10.102;2023-04-03T08:33:00;5.70;99.90
6293;DHT22;3179;54.350;10.102;2023-04-03T08:35:27;5.80;99.30
6293;DHT22;3179;54.350;10.102;2023-04-03T08:37:54;5.80;99.40
6293;DHT22;3179;54.350;10.102;2023-04-03T08:40:22;5.90;98.80
6293;DHT22;3179;54.350;10.102;2023-04-03T08:42:58;5.90;98.70
6293;DHT22;3179;54.350;10.102;2023-04-03T08:45:41;5.90;98.50
6293;DHT22;3179;54.350;10.102;2023-04-03T08:48:13;6.00;98.70
6293;DHT22;3179;54.350;10.102;2023-04-03T08:50:44;6.10;98.10
6293;DHT22;3179;54.350;10.102;2023-04-03T08:53:15;6.20;96.90
6293;DHT22;3179;54.350;10.102;2023-04-03T08:55:44;6.20;97.00
6293;DHT22;3179;54.350;10.102;2023-04-03T08:58:15;6.30;97.30
6293;DHT22;3179;54.350;10.102;2023-04-03T09:00:45;6.40;97.60
6293;DHT22;3179;54.350;10.102;2023-04-03T09:03:14;6.50;97.30
6293;DHT22;3179;54.350;10.102;2023-04-03T09:05:45;6.50;96.70
6293;DHT22;3179;54.350;10.102;2023-04-03T09:08:23;6.60;96.60
6293;DHT22;3179;54.350;10.102;2023-04-03T09:10:59;6.60;96.70
6293;DHT22;3179;54.350;10.102;2023-04-03T09:13:33;6.60;97.00
6293;DHT22;3179;54.350;10.102;2023-04-03T09:16:04;6.70;96.60
6293;DHT22;3179;54.350;10.102;2023-04-03T09:18:41;6.80;96.70
6293;DHT22;3179;54.350;10.102;2023-04-03T09:21:15;6.80;96.30
6293;DHT22;3179;54.350;10.102;2023-04-03T09:23:46;6.90;95.90
6293;DHT22;3179;54.350;10.102;2023-04-03T09:26:18;6.90;95.90
6293;DHT22;3179;54.350;10.102;2023-04-03T09:28:48;7.00;96.30
6293;DHT22;3179;54.350;10.102;2023-04-03T09:31:20;7.10;96.20
6293;DHT22;3179;54.350;10.102;2023-04-03T09:33:49;7.20;96.30
6293;DHT22;3179;54.350;10.102;2023-04-03T09:36:38;7.30;96.10
6293;DHT22;3179;54.350;10.102;2023-04-03T09:39:07;7.40;95.90
6293;DHT22;3179;54.350;10.102;2023-04-03T09:41:36;7.40;95.90
6293;DHT22;3179;54.350;10.102;2023-04-03T09:44:19;7.50;96.80
6293;DHT22;3179;54.350;10.102;2023-04-03T09:46:46;7.60;96.60
6293;DHT22;3179;54.350;10.102;2023-04-03T09:49:13;7.60;96.60
6293;DHT22;3179;54.350;10.102;2023-04-03T09:51:40;7.70;96.50
6293;DHT22;3179;54.350;10.102;2023-04-03T09:54:30;7.80;96.40
6293;DHT22;3179;54.350;10.102;2023-04-03T09:57:01;7.90;96.40
6293;DHT22;3179;54.350;10.102;2023-04-03T09:59:31;8.10;96.50
6293;DHT22;3179;54.350;10.102;2023-04-03T10:02:00;8.20;96.40
6293;DHT22;3179;54.350;10.102;2023-04-03T10:04:37;8.20;96.10
6293;DHT22;3179;54.350;10.102;2023-04-03T10:07:31;8.30;95.70
6293;DHT22;3179;54.350;10.102;2023-04-03T10:10:00;8.40;95.50
6293;DHT22;3179;54.350;10.102;2023-04-03T10:12:28;8.50;95.80
6293;DHT22;3179;54.350;10.102;2023-04-03T10:14:58;8.60;95.80
6293;DHT22;3179;54.350;10.102;2023-04-03T10:17:35;8.70;95.40
6293;DHT22;3179;54.350;10.102;2023-04-03T10:20:15;8.80;95.10
6293;DHT22;3179;54.350;10.102;2023-04-03T10:22:56;8.90;95.20
6293;DHT22;3179;54.350;10.102;2023-04-03T10:25:31;8.90;95.80
6293;DHT22;3179;54.350;10.102;2023-04-03T10:28:00;9.00;95.40
6293;DHT22;3179;54.350;10.102;2023-04-03T10:30:36;9.00;95.70
6293;DHT22;3179;54.350;10.102;2023-04-03T10:33:20;9.10;95.60
6293;DHT22;3179;54.350;10.102;2023-04-03T10:35:58;9.10;95.60
6293;DHT22;3179;54.350;10.102;2023-04-03T10:38:36;9.20;95.60
6293;DHT22;3179;54.350;10.102;2023-04-03T10:41:10;9.30;96.00
6293;DHT22;3179;54.350;10.102;2023-04-03T10:43:43;9.40;96.00
6293;DHT22;3179;54.350;10.102;2023-04-03T10:46:15;9.50;95.80
6293;DHT22;3179;54.350;10.102;2023-04-03T10:51:39;9.70;95.90
6293;DHT22;3179;54.350;10.102;2023-04-03T10:54:11;9.80;95.40
6293;DHT22;3179;54.350;10.102;2023-04-03T10:56:41;9.80;95.70
6293;DHT22;3179;54.350;10.102;2023-04-03T10:59:17;9.90;96.40
6293;DHT22;3179;54.350;10.102;2023-04-03T11:01:49;10.10;95.30
6293;DHT22;3179;54.350;10.102;2023-04-03T11:04:18;10.20;94.90
6293;DHT22;3179;54.350;10.102;2023-04-03T11:06:49;10.10;95.20
6293;DHT22;3179;54.350;10.102;2023-04-03T11:09:23;10.00;95.00
6293;DHT22;3179;54.350;10.102;2023-04-03T11:11:53;9.70;94.80
6293;DHT22;3179;54.350;10.102;2023-04-03T11:14:26;9.50;94.50
6293;DHT22;3179;54.350;10.102;2023-04-03T11:17:11;9.30;93.60
6293;DHT22;3179;54.350;10.102;2023-04-03T11:19:42;9.30;93.30
6293;DHT22;3179;54.350;10.102;2023-04-03T11:22:18;9.50;93.50
6293;DHT22;3179;54.350;10.102;2023-04-03T11:24:56;9.60;93.70
6293;DHT22;3179;54.350;10.102;2023-04-03T11:27:25;9.70;93.30
6293;DHT22;3179;54.350;10.102;2023-04-03T11:29:56;9.90;93.60
6293;DHT22;3179;54.350;10.102;2023-04-03T11:32:42;9.90;91.90
6293;DHT22;3179;54.350;10.102;2023-04-03T11:35:13;9.90;91.50
6293;DHT22;3179;54.350;10.102;2023-04-03T11:37:43;9.90;91.70
6293;DHT22;3179;54.350;10.102;2023-04-03T11:40:21;9.80;92.30
6293;DHT22;3179;54.350;10.102;2023-04-03T11:42:51;10.00;92.70
6293;DHT22;3179;54.350;10.102;2023-04-03T11:45:49;10.10;93.20
6293;DHT22;3179;54.350;10.102;2023-04-03T11:48:44;10.10;91.30
6293;DHT22;3179;54.350;10.102;2023-04-03T11:54:46;10.10;90.90
6293;DHT22;3179;54.350;10.102;2023-04-03T11:57:44;10.20;91.30
6293;DHT22;3179;54.350;10.102;2023-04-03T12:00:52;10.30;91.60
6293;DHT22;3179;54.350;10.102;2023-04-03T12:03:57;10.30;90.80
6293;DHT22;3179;54.350;10.102;2023-04-03T12:06:50;10.30;91.40
6293;DHT22;3179;54.350;10.102;2023-04-03T12:09:34;10.40;91.20
6293;DHT22;3179;54.350;10.102;2023-04-03T12:12:26;10.40;91.50
6293;DHT22;3179;54.350;10.102;2023-04-03T12:14:54;10.40;91.80
6293;DHT22;3179;54.350;10.102;2023-04-03T12:17:23;10.50;92.20
6293;DHT22;3179;54.350;10.102;2023-04-03T12:19:52;10.60;92.40
6293;DHT22;3179;54.350;10.102;2023-04-03T12:22:20;10.60;92.00
6293;DHT22;3179;54.350;10.102;2023-04-03T12:24:49;10.70;92.60
6293;DHT22;3179;54.350;10.102;2023-04-03T12:27:33;10.70;92.40
6293;DHT22;3179;54.350;10.102;2023-04-03T12:30:14;10.70;91.60
6293;DHT22;3179;54.350;10.102;2023-04-03T12:32:54;10.70;92.20
6293;DHT22;3179;54.350;10.102;2023-04-03T12:35:28;10.70;92.10
6293;DHT22;3179;54.350;10.102;2023-04-03T12:38:21;10.70;92.70
6293;DHT22;3179;54.350;10.102;2023-04-03T12:40:58;10.70;92.10
6293;DHT22;3179;54.350;10.102;2023-04-03T12:43:41;10.80;92.30
6293;DHT22;3179;54.350;10.102;2023-04-03T12:46:13;10.90;91.80
6293;DHT22;3179;54.350;10.102;2023-04-03T12:48:48;10.80;92.00
6293;DHT22;3179;54.350;10.102;2023-04-03T12:51:19;10.90;91.80
6293;DHT22;3179;54.350;10.102;2023-04-03T12:53:49;10.90;91.40
6293;DHT22;3179;54.350;10.102;2023-04-03T12:56:21;10.90;91.80
6293;DHT22;3179;54.350;10.102;2023-04-03T12:58:50;10.90;91.40
6293;DHT22;3179;54.350;10.102;2023-04-03T13:01:20;10.90;91.80
6293;DHT22;3179;54.350;10.102;2023-04-03T13:03:51;10.90;91.30
6293;DHT22;3179;54.350;10.102;2023-04-03T13:06:22;11.00;91.10
6293;DHT22;3179;54.350;10.102;2023-04-03T13:08:51;10.90;90.50
6293;DHT22;3179;54.350;10.102;2023-04-03T13:11:19;10.90;90.60
6293;DHT22;3179;54.350;10.102;2023-04-03T13:13:57;10.80;90.10
6293;DHT22;3179;54.350;10.102;2023-04-03T13:16:24;10.90;87.20
6293;DHT22;3179;54.350;10.102;2023-04-03T13:18:52;10.90;89.00
6293;DHT22;3179;54.350;10.102;2023-04-03T13:21:23;10.90;90.00
6293;DHT22;3179;54.350;10.102;2023-04-03T13:23:52;10.90;89.20
6293;DHT22;3179;54.350;10.102;2023-04-03T13:26:21;10.90;89.60
6293;DHT22;3179;54.350;10.102;2023-04-03T13:28:49;11.00;89.40
6293;DHT22;3179;54.350;10.102;2023-04-03T13:31:23;11.00;89.00
6293;DHT22;3179;54.350;10.102;2023-04-03T13:33:57;11.00;86.70
6293;DHT22;3179;54.350;10.102;2023-04-03T13:36:29;11.10;88.60
6293;DHT22;3179;54.350;10.102;2023-04-03T13:39:03;11.10;89.30
6293;DHT22;3179;54.350;10.102;2023-04-03T13:41:39;11.10;88.60
6293;DHT22;3179;54.350;10.102;2023-04-03T13:44:23;11.10;89.50
6293;DHT22;3179;54.350;10.102;2023-04-03T13:46:53;11.20;89.90
6293;DHT22;3179;54.350;10.102;2023-04-03T13:49:21;11.20;88.40
6293;DHT22;3179;54.350;10.102;2023-04-03T13:51:50;11.20;89.50
6293;DHT22;3179;54.350;10.102;2023-04-03T13:54:20;11.30;89.70
6293;DHT22;3179;54.350;10.102;2023-04-03T13:56:54;11.40;89.50
6293;DHT22;3179;54.350;10.102;2023-04-03T13:59:24;11.40;88.30
6293;DHT22;3179;54.350;10.102;2023-04-03T14:01:54;11.40;89.60
6293;DHT22;3179;54.350;10.102;2023-04-03T14:04:24;11.50;88.60
6293;DHT22;3179;54.350;10.102;2023-04-03T14:06:54;11.50;89.10
6293;DHT22;3179;54.350;10.102;2023-04-03T14:09:23;11.70;88.90
6293;DHT22;3179;54.350;10.102;2023-04-03T14:11:53;11.80;88.20
6293;DHT22;3179;54.350;10.102;2023-04-03T14:14:22;12.00;88.30
6293;DHT22;3179;54.350;10.102;2023-04-03T14:16:52;12.30;89.40
6293;DHT22;3179;54.350;10.102;2023-04-03T14:19:22;12.50;88.80
6293;DHT22;3179;54.350;10.102;2023-04-03T14:21:49;12.60;87.60
6293;DHT22;3179;54.350;10.102;2023-04-03T14:24:19;12.60;87.90
6293;DHT22;3179;54.350;10.102;2023-04-03T14:26:47;12.70;88.00
6293;DHT22;3179;54.350;10.102;2023-04-03T14:29:14;12.80;88.80
6293;DHT22;3179;54.350;10.102;2023-04-03T14:31:43;12.90;88.70
6293;DHT22;3179;54.350;10.102;2023-04-03T14:34:10;13.00;89.00
6293;DHT22;3179;54.350;10.102;2023-04-03T14:36:38;13.10;89.00
6293;DHT22;3179;54.350;10.102;2023-04-03T14:39:07;13.50;88.00
6293;DHT22;3179;54.350;10.102;2023-04-03T14:41:38;13.80;87.20
6293;DHT22;3179;54.350;10.102;2023-04-03T14:44:05;14.10;87.30
6293;DHT22;3179;54.350;10.102;2023-04-03T14:46:35;14.30;86.20
6293;DHT22;3179;54.350;10.102;2023-04-03T14:49:03;14.50;84.10
6293;DHT22;3179;54.350;10.102;2023-04-03T14:51:33;14.70;85.50
6293;DHT22;3179;54.350;10.102;2023-04-03T14:54:00;15.00;83.80
6293;DHT22;3179;54.350;10.102;2023-04-03T14:56:29;15.10;83.30
6293;DHT22;3179;54.350;10.102;2023-04-03T14:58:59;15.20;82.10
6293;DHT22;3179;54.350;10.102;2023-04-03T15:01:27;15.40;80.00
6293;DHT22;3179;54.350;10.102;2023-04-03T15:03:54;15.30;81.00
6293;DHT22;3179;54.350;10.102;2023-04-03T15:06:21;15.40;81.70
6293;DHT22;3179;54.350;10.102;2023-04-03T15:08:48;15.50;80.00
6293;DHT22;3179;54.350;10.102;2023-04-03T15:11:15;15.50;80.50
6293;DHT22;3179;54.350;10.102;2023-04-03T15:13:42;15.60;81.00
6293;DHT22;3179;54.350;10.102;2023-04-03T15:16:16;15.50;80.00
6293;DHT22;3179;54.350;10.102;2023-04-03T15:18:44;15.10;75.60
6293;DHT22;3179;54.350;10.102;2023-04-03T15:21:11;14.70;78.60
6293;DHT22;3179;54.350;10.102;2023-04-03T15:23:38;14.50;79.40
6293;DHT22;3179;54.350;10.102;2023-04-03T15:26:04;14.20;79.20
6293;DHT22;3179;54.350;10.102;2023-04-03T15:28:34;13.90;79.40
6293;DHT22;3179;54.350;10.102;2023-04-03T15:31:02;13.60;78.70
6293;DHT22;3179;54.350;10.102;2023-04-03T15:33:31;13.40;78.90
6293;DHT22;3179;54.350;10.102;2023-04-03T15:35:58;13.30;79.20
6293;DHT22;3179;54.350;10.102;2023-04-03T15:38:25;13.30;78.80
6293;DHT22;3179;54.350;10.102;2023-04-03T15:40:52;13.50;79.10
6293;DHT22;3179;54.350;10.102;2023-04-03T15:43:20;13.80;79.20
6293;DHT22;3179;54.350;10.102;2023-04-03T15:45:47;14.10;78.70
6293;DHT22;3179;54.350;10.102;2023-04-03T15:48:15;14.60;78.90
6293;DHT22;3179;54.350;10.102;2023-04-03T15:50:43;15.00;76.80
6293;DHT22;3179;54.350;10.102;2023-04-03T15:53:10;15.20;75.50
6293;DHT22;3179;54.350;10.102;2023-04-03T15:55:37;15.40;76.40
6293;DHT22;3179;54.350;10.102;2023-04-03T15:58:04;15.60;75.60
6293;DHT22;3179;54.350;10.102;2023-04-03T16:00:31;15.70;75.60
6293;DHT22;3179;54.350;10.102;2023-04-03T16:03:00;15.60;74.50
6293;DHT22;3179;54.350;10.102;2023-04-03T16:05:29;15.30;75.20
6293;DHT22;3179;54.350;10.102;2023-04-03T16:07:59;15.00;75.40
6293;DHT22;3179;54.350;10.102;2023-04-03T16:10:27;14.80;75.10
6293;DHT22;3179;54.350;10.102;2023-04-03T16:12:54;14.70;75.90
6293;DHT22;3179;54.350;10.102;2023-04-03T16:15:21;14.20;76.20
6293;DHT22;3179;54.350;10.102;2023-04-03T16:17:48;13.80;76.60
6293;DHT22;3179;54.350;10.102;2023-04-03T16:20:15;13.40;76.50
6293;DHT22;3179;54.350;10.102;2023-04-03T16:22:43;13.20;77.40